createdAt,value
2019-01-06T15:38:24.822Z,12.10
2019-01-06T15:41:31.017Z,12.10
2019-01-06T15:44:28.218Z,12.20
2019-01-06T15:47:34.567Z,12.20
2019-01-06T15:50:37.801Z,12.30
2019-01-06T15:53:29.435Z,12.30
2019-01-06T15:56:23.510Z,12.30
2019-01-06T15:59:20.403Z,12.30
2019-01-06T16:02:08.470Z,12.40
2019-01-06T16:05:01.469Z,12.40
2019-01-06T16:08:10.997Z,12.40
2019-01-06T16:11:17.291Z,12.40
2019-01-06T16:14:08.229Z,12.40
2019-01-06T16:17:01.532Z,12.40
2019-01-06T16:19:52.563Z,12.40
2019-01-06T16:22:44.476Z,12.50
2019-01-06T16:25:57.433Z,12.50
2019-01-06T16:28:38.479Z,12.50
2019-01-06T16:31:25.398Z,12.60
2019-01-06T16:34:16.391Z,12.60
2019-01-06T16:37:16.305Z,12.50
2019-01-06T16:40:19.481Z,12.60
2019-01-06T16:43:10.944Z,12.60
2019-01-06T16:45:57.654Z,12.60
2019-01-06T16:48:57.770Z,12.50
2019-01-06T16:51:47.842Z,12.50
2019-01-06T16:54:48.017Z,12.50
2019-01-06T16:57:48.132Z,12.60
2019-01-06T17:00:35.230Z,12.60
2019-01-06T17:03:21.846Z,12.70
2019-01-06T17:06:14.158Z,12.70
2019-01-06T17:09:07.839Z,12.80
2019-01-06T17:11:54.442Z,12.80
2019-01-06T17:14:41.238Z,12.80
2019-01-06T17:17:41.406Z,12.80
2019-01-06T17:20:32.082Z,12.80
2019-01-06T17:23:23.442Z,12.90
2019-01-06T17:26:11.507Z,12.80
2019-01-06T17:28:57.862Z,12.80
2019-01-06T17:31:42.020Z,12.90
2019-01-06T17:34:39.078Z,12.80
2019-01-06T17:37:38.780Z,12.80
2019-01-06T17:40:26.871Z,12.90
2019-01-06T17:43:16.259Z,12.90
2019-01-06T17:46:07.098Z,12.90
2019-01-06T17:49:00.734Z,12.90
2019-01-06T17:52:06.773Z,13.00
2019-01-06T17:54:54.830Z,12.90
2019-01-06T17:57:44.490Z,13.00
2019-01-06T18:00:31.302Z,13.00
2019-01-06T18:03:27.766Z,13.00
2019-01-06T18:06:14.798Z,13.00
2019-01-06T18:09:15.411Z,13.10
2019-01-06T18:11:59.456Z,13.00
2019-01-06T18:14:53.533Z,13.00
2019-01-06T18:17:39.954Z,13.10
2019-01-06T18:20:26.381Z,13.10
2019-01-06T18:23:20.745Z,13.10
2019-01-06T18:26:11.453Z,13.10
2019-01-06T18:28:58.113Z,13.20
2019-01-06T18:31:44.861Z,13.00
2019-01-06T18:34:34.214Z,12.80
2019-01-06T18:37:22.522Z,12.60
2019-01-06T18:40:25.585Z,12.50
